createdAt,value
2019-01-26T00:00:49.684Z,14.20
2019-01-26T00:03:17.382Z,13.57
2019-01-26T00:05:43.698Z,12.90
2019-01-26T00:08:10.210Z,13.87
2019-01-26T00:10:38.748Z,13.50
2019-01-26T00:13:05.229Z,14.10
2019-01-26T00:15:38.462Z,13.50
2019-01-26T00:18:04.830Z,13.37
2019-01-26T00:20:31.192Z,13.30
2019-01-26T00:22:57.516Z,12.40
2019-01-26T00:25:23.997Z,12.00
2019-01-26T00:27:50.352Z,13.50
2019-01-26T00:30:17.004Z,13.47
2019-01-26T00:32:52.044Z,13.80
2019-01-26T00:35:18.225Z,13.07
2019-01-26T00:37:44.605Z,14.00
2019-01-26T00:40:11.504Z,14.40
2019-01-26T00:42:38.104Z,14.30
2019-01-26T00:45:04.766Z,14.77
2019-01-26T00:47:31.124Z,14.80
2019-01-26T00:49:57.668Z,15.13
2019-01-26T00:52:23.990Z,14.97
2019-01-26T00:54:50.364Z,13.23
2019-01-26T00:57:16.729Z,14.13
2019-01-26T00:59:43.013Z,14.13
2019-01-26T01:02:09.408Z,14.43
2019-01-26T01:04:35.725Z,14.23
2019-01-26T01:07:02.132Z,13.90
2019-01-26T01:09:28.463Z,15.03
2019-01-26T01:11:55.018Z,14.10
2019-01-26T01:14:22.389Z,14.33
2019-01-26T01:16:48.681Z,14.40
2019-01-26T01:19:15.133Z,14.10
2019-01-26T01:21:42.493Z,12.60
2019-01-26T01:24:08.817Z,13.73
2019-01-26T01:26:35.165Z,13.40
2019-01-26T01:29:01.496Z,13.57
2019-01-26T01:31:27.781Z,13.40
2019-01-26T01:33:54.045Z,13.03
2019-01-26T01:36:20.373Z,13.80
2019-01-26T01:38:46.716Z,12.47
2019-01-26T01:41:12.941Z,13.20
2019-01-26T01:43:39.232Z,12.00
2019-01-26T01:46:05.524Z,12.17
2019-01-26T01:48:31.901Z,11.73
2019-01-26T01:51:00.225Z,11.57
2019-01-26T01:53:26.613Z,11.13
2019-01-26T01:55:52.828Z,11.50
2019-01-26T01:58:19.208Z,10.63
2019-01-26T02:00:45.548Z,10.73
2019-01-26T02:03:12.159Z,10.67
2019-01-26T02:05:38.491Z,11.20
2019-01-26T02:08:04.925Z,12.00
2019-01-26T02:10:36.232Z,11.37
2019-01-26T02:13:02.468Z,10.57
2019-01-26T02:15:28.952Z,11.30
2019-01-26T02:17:55.348Z,11.30
2019-01-26T02:20:32.418Z,12.13
2019-01-26T02:22:58.753Z,12.27
2019-01-26T02:25:25.183Z,12.10
2019-01-26T02:27:51.545Z,11.67
2019-01-26T02:30:18.897Z,12.60
2019-01-26T02:32:45.154Z,12.53
2019-01-26T02:35:13.812Z,12.47
2019-01-26T02:37:40.140Z,13.07
2019-01-26T02:40:08.579Z,13.13
2019-01-26T02:42:34.956Z,12.37
2019-01-26T02:45:01.302Z,12.53
2019-01-26T02:47:27.659Z,12.77
2019-01-26T02:49:53.996Z,13.07
2019-01-26T02:52:21.293Z,13.43
2019-01-26T02:54:47.500Z,13.77
2019-01-26T02:57:13.924Z,13.63
2019-01-26T02:59:40.178Z,13.57
2019-01-26T03:02:06.404Z,13.40
2019-01-26T03:04:32.711Z,13.80
2019-01-26T03:06:59.080Z,14.53
2019-01-26T03:09:25.434Z,13.57
2019-01-26T03:12:07.284Z,14.17
2019-01-26T03:14:33.638Z,12.77
2019-01-26T03:17:05.940Z,13.00
2019-01-26T03:19:28.084Z,12.47
2019-01-26T03:21:54.390Z,12.83
2019-01-26T03:24:20.656Z,12.87
2019-01-26T03:26:47.045Z,12.50
2019-01-26T03:29:13.248Z,12.17
2019-01-26T03:31:39.530Z,11.93
2019-01-26T03:34:05.865Z,12.43
2019-01-26T03:36:32.157Z,11.70
2019-01-26T03:38:58.423Z,11.03
2019-01-26T03:41:24.859Z,11.07
2019-01-26T03:43:51.085Z,10.77
2019-01-26T03:46:18.611Z,11.03
2019-01-26T03:48:45.001Z,10.07
2019-01-26T03:51:11.667Z,10.83
2019-01-26T03:53:38.064Z,10.27
2019-01-26T03:56:04.446Z,9.80
2019-01-26T03:58:30.784Z,10.10
2019-01-26T04:00:57.214Z,10.43
2019-01-26T04:03:23.452Z,10.83
2019-01-26T04:05:49.958Z,11.50
2019-01-26T04:08:16.642Z,11.30
2019-01-26T04:10:44.916Z,10.87
2019-01-26T04:13:11.651Z,11.20
2019-01-26T04:15:37.984Z,10.83
2019-01-26T04:18:04.429Z,10.30
2019-01-26T04:20:30.744Z,10.73
2019-01-26T04:22:57.018Z,10.97
2019-01-26T04:25:23.372Z,11.00
2019-01-26T04:27:49.716Z,11.37
2019-01-26T04:30:17.481Z,10.37
2019-01-26T04:32:43.740Z,10.67
2019-01-26T04:35:10.041Z,11.13
2019-01-26T04:37:36.473Z,9.80
2019-01-26T04:40:03.263Z,10.37
2019-01-26T04:42:29.566Z,10.30
2019-01-26T04:44:55.793Z,10.73
2019-01-26T04:47:31.120Z,10.50
2019-01-26T04:49:56.698Z,11.27
2019-01-26T04:52:23.020Z,11.13
2019-01-26T04:54:49.345Z,11.03
2019-01-26T04:57:15.613Z,10.70
2019-01-26T04:59:56.420Z,10.73
2019-01-26T05:02:22.675Z,10.03
2019-01-26T05:04:48.940Z,10.83
2019-01-26T05:07:15.312Z,11.57
2019-01-26T05:09:41.596Z,10.23
2019-01-26T05:12:07.960Z,9.40
2019-01-26T05:14:34.353Z,9.17
2019-01-26T05:17:00.730Z,9.70
2019-01-26T05:19:26.940Z,8.77
2019-01-26T05:21:53.443Z,9.40
2019-01-26T05:24:19.720Z,8.43
2019-01-26T05:26:46.201Z,7.50
2019-01-26T05:29:12.632Z,7.70
2019-01-26T05:31:40.933Z,7.80
2019-01-26T05:34:07.305Z,7.67
2019-01-26T05:36:33.628Z,7.67
2019-01-26T05:38:59.972Z,7.20
2019-01-26T05:41:26.352Z,7.53
2019-01-26T05:43:58.698Z,7.23
2019-01-26T05:46:25.252Z,8.47
2019-01-26T05:48:51.793Z,8.00
2019-01-26T05:51:18.156Z,8.67
2019-01-26T05:53:44.410Z,8.40
2019-01-26T05:56:10.854Z,8.50
2019-01-26T05:58:37.276Z,9.87
2019-01-26T06:01:03.614Z,9.10
2019-01-26T06:03:29.985Z,8.63
2019-01-26T06:05:56.596Z,8.77
2019-01-26T06:08:22.916Z,8.50
2019-01-26T06:10:49.276Z,8.90
2019-01-26T06:13:17.826Z,8.97
2019-01-26T06:15:49.589Z,8.93
2019-01-26T06:18:17.175Z,9.20
2019-01-26T06:20:47.349Z,8.50
2019-01-26T06:23:13.932Z,8.90
2019-01-26T06:25:40.442Z,8.47
2019-01-26T06:28:06.848Z,8.07
2019-01-26T06:30:34.249Z,7.70
2019-01-26T06:33:00.676Z,7.47
2019-01-26T06:35:27.076Z,8.20
2019-01-26T06:37:53.417Z,7.90
2019-01-26T06:40:19.914Z,7.67
2019-01-26T06:42:52.453Z,8.10
2019-01-26T06:45:19.292Z,8.70
2019-01-26T06:47:46.824Z,8.03
2019-01-26T06:50:14.341Z,8.50
2019-01-26T06:52:46.580Z,7.77
2019-01-26T06:55:13.111Z,7.47
2019-01-26T06:57:39.643Z,7.37
2019-01-26T07:00:07.838Z,6.93
2019-01-26T07:02:42.475Z,6.87
2019-01-26T07:05:26.804Z,7.57
2019-01-26T07:07:53.780Z,7.10
2019-01-26T07:10:20.188Z,7.40
2019-01-26T07:12:46.621Z,7.40
2019-01-26T07:15:14.418Z,6.90
2019-01-26T07:17:40.798Z,7.50
2019-01-26T07:20:09.193Z,6.97
2019-01-26T07:22:35.834Z,7.77
2019-01-26T07:25:02.304Z,6.80
2019-01-26T07:27:47.851Z,7.00
2019-01-26T07:30:16.061Z,6.60
2019-01-26T07:32:42.364Z,5.80
2019-01-26T07:35:08.741Z,6.23
2019-01-26T07:37:35.188Z,6.00
2019-01-26T07:40:08.550Z,6.17
2019-01-26T07:42:35.108Z,7.30
2019-01-26T07:45:01.663Z,7.47
2019-01-26T07:47:28.506Z,6.70
2019-01-26T07:49:56.969Z,6.10
2019-01-26T07:52:29.246Z,6.50
2019-01-26T07:54:55.874Z,6.10
2019-01-26T07:57:22.555Z,6.63
2019-01-26T07:59:48.942Z,6.27
2019-01-26T08:02:15.826Z,6.93
2019-01-26T08:04:42.591Z,6.37
2019-01-26T08:07:09.038Z,7.60
2019-01-26T08:09:35.521Z,7.87
2019-01-26T08:12:02.198Z,7.20
2019-01-26T08:14:28.764Z,8.07
2019-01-26T08:16:55.361Z,8.20
2019-01-26T08:20:03.293Z,8.57
2019-01-26T08:22:29.657Z,8.70
2019-01-26T08:24:56.141Z,7.70
2019-01-26T08:27:22.481Z,7.67
2019-01-26T08:29:48.842Z,7.13
2019-01-26T08:32:17.696Z,7.30
2019-01-26T08:34:45.299Z,7.80
2019-01-26T08:37:12.193Z,7.20
2019-01-26T08:39:38.572Z,6.73
2019-01-26T08:42:30.035Z,7.37
2019-01-26T08:44:58.077Z,7.77
2019-01-26T08:47:29.484Z,7.47
2019-01-26T08:49:56.061Z,8.07
2019-01-26T08:52:22.841Z,8.10
2019-01-26T08:54:51.782Z,7.63
2019-01-26T08:57:18.444Z,7.57
2019-01-26T08:59:44.786Z,8.33
2019-01-26T09:02:25.495Z,7.97
2019-01-26T09:04:58.712Z,7.63
2019-01-26T09:07:25.226Z,8.10
2019-01-26T09:09:51.832Z,7.80
2019-01-26T09:12:18.320Z,8.07
2019-01-26T09:14:44.933Z,8.30
2019-01-26T09:17:11.652Z,7.30
2019-01-26T09:19:38.229Z,7.47
2019-01-26T09:22:04.921Z,7.67
2019-01-26T09:24:31.260Z,8.33
2019-01-26T09:26:57.691Z,8.40
2019-01-26T09:29:24.099Z,8.20
2019-01-26T09:31:50.443Z,7.47
2019-01-26T09:34:17.744Z,8.90
2019-01-26T09:36:44.591Z,9.40
2019-01-26T09:39:11.776Z,9.07
2019-01-26T09:41:38.806Z,9.33
2019-01-26T09:44:12.061Z,9.47
2019-01-26T09:46:38.967Z,9.17
2019-01-26T09:49:05.920Z,9.17
2019-01-26T09:51:32.668Z,9.90
2019-01-26T09:53:59.951Z,11.40
2019-01-26T09:56:26.820Z,9.17
2019-01-26T09:58:53.658Z,10.13
2019-01-26T10:01:20.600Z,9.23
2019-01-26T10:03:47.542Z,10.77
2019-01-26T10:06:14.657Z,9.53
2019-01-26T10:08:55.780Z,9.93
2019-01-26T10:11:23.012Z,9.93
2019-01-26T10:13:50.880Z,10.30
2019-01-26T10:16:25.099Z,10.70
2019-01-26T10:19:06.747Z,11.17
2019-01-26T10:21:41.281Z,10.47
2019-01-26T10:24:18.002Z,10.03
2019-01-26T10:27:05.307Z,9.97
2019-01-26T10:29:32.813Z,9.20
2019-01-26T10:32:01.774Z,9.93
2019-01-26T10:34:28.229Z,9.40
2019-01-26T10:37:03.001Z,8.97
2019-01-26T10:39:29.907Z,8.90
2019-01-26T10:42:26.833Z,8.10
2019-01-26T10:44:53.717Z,8.10
2019-01-26T10:47:22.617Z,8.20
2019-01-26T10:49:51.084Z,8.13
2019-01-26T10:52:18.348Z,10.20
2019-01-26T10:54:47.538Z,9.23
2019-01-26T10:57:14.295Z,9.50
2019-01-26T10:59:41.020Z,10.07
2019-01-26T11:02:08.263Z,10.63
2019-01-26T11:04:35.046Z,9.83
2019-01-26T11:07:15.846Z,10.33
2019-01-26T11:09:51.639Z,10.57
2019-01-26T11:12:21.369Z,11.57
2019-01-26T11:14:48.569Z,10.90
2019-01-26T11:17:17.684Z,10.90
2019-01-26T11:19:44.582Z,11.20
2019-01-26T11:22:14.161Z,11.67
2019-01-26T11:24:41.075Z,10.30
2019-01-26T11:27:08.160Z,11.53
2019-01-26T11:29:35.115Z,11.93
2019-01-26T11:32:02.117Z,11.93
2019-01-26T11:34:29.137Z,11.87
2019-01-26T11:36:56.077Z,11.97
2019-01-26T11:39:22.948Z,13.17
2019-01-26T11:41:52.039Z,12.57
2019-01-26T11:44:19.218Z,13.07
2019-01-26T11:46:58.024Z,12.43
2019-01-26T11:49:24.960Z,13.33
2019-01-26T11:52:11.217Z,14.80
2019-01-26T11:55:03.910Z,21.07
2019-01-26T11:57:33.449Z,14.37
2019-01-26T12:00:18.489Z,15.87
2019-01-26T12:02:51.225Z,15.60
2019-01-26T12:05:25.708Z,14.53
2019-01-26T12:07:52.572Z,14.40
2019-01-26T12:10:19.591Z,15.30
2019-01-26T12:12:46.497Z,14.07
2019-01-26T12:15:14.006Z,14.07
2019-01-26T12:17:40.801Z,13.77
2019-01-26T12:20:09.054Z,13.33
2019-01-26T12:22:36.071Z,14.10
2019-01-26T12:25:02.720Z,13.43
2019-01-26T12:27:29.073Z,13.63
2019-01-26T12:29:55.549Z,13.43
2019-01-26T12:32:22.119Z,12.97
2019-01-26T12:34:48.502Z,11.73
2019-01-26T12:37:14.973Z,12.43
2019-01-26T12:39:41.313Z,12.20
2019-01-26T12:42:07.888Z,16.87
2019-01-26T12:44:34.478Z,13.57
2019-01-26T12:47:03.879Z,13.93
2019-01-26T12:49:30.620Z,14.10
2019-01-26T12:51:57.215Z,14.00
2019-01-26T12:54:23.991Z,14.23
2019-01-26T12:56:50.626Z,14.90
2019-01-26T12:59:17.032Z,14.50
2019-01-26T13:01:43.612Z,13.67
2019-01-26T13:04:10.235Z,14.70
2019-01-26T13:06:37.471Z,14.23
2019-01-26T13:09:06.760Z,15.83
2019-01-26T13:11:33.373Z,14.47
2019-01-26T13:13:59.978Z,15.50
2019-01-26T13:16:26.669Z,16.13
2019-01-26T13:18:53.138Z,14.37
2019-01-26T13:21:22.278Z,15.37
2019-01-26T13:23:48.929Z,14.50
2019-01-26T13:26:15.914Z,13.87
2019-01-26T13:28:42.466Z,14.37
2019-01-26T13:31:08.962Z,13.70
2019-01-26T13:33:35.490Z,12.50
2019-01-26T13:36:07.381Z,12.73
2019-01-26T13:38:34.099Z,11.47
2019-01-26T13:41:09.972Z,10.40
2019-01-26T13:43:38.285Z,10.13
2019-01-26T13:46:05.620Z,10.13
2019-01-26T13:48:32.480Z,10.20
2019-01-26T13:50:58.981Z,9.70
2019-01-26T13:53:25.558Z,9.77
2019-01-26T13:55:53.268Z,10.13
2019-01-26T13:58:19.948Z,10.23
2019-01-26T14:00:46.726Z,10.60
2019-01-26T14:03:13.285Z,11.07
2019-01-26T14:05:39.861Z,10.30
2019-01-26T14:08:06.480Z,12.07
2019-01-26T14:10:33.146Z,12.00
2019-01-26T14:12:59.686Z,12.00
2019-01-26T14:15:26.542Z,11.67
2019-01-26T14:17:53.094Z,12.40
2019-01-26T14:20:20.409Z,12.37
2019-01-26T14:22:46.876Z,13.30
2019-01-26T14:25:13.824Z,13.50
2019-01-26T14:27:40.447Z,14.50
2019-01-26T14:30:10.182Z,17.27
2019-01-26T14:32:36.815Z,14.73
2019-01-26T14:35:03.406Z,15.63
2019-01-26T14:37:29.985Z,17.20
2019-01-26T14:39:56.594Z,15.83
2019-01-26T14:42:44.619Z,15.80
2019-01-26T14:45:14.596Z,15.70
2019-01-26T14:47:53.001Z,16.03
2019-01-26T14:50:25.329Z,15.70
2019-01-26T14:52:52.003Z,16.40
2019-01-26T14:56:26.765Z,15.87
2019-01-26T14:58:56.995Z,16.30
2019-01-26T15:01:23.457Z,16.93
2019-01-26T15:03:53.108Z,16.23
2019-01-26T15:10:41.457Z,16.50
2019-01-26T15:13:32.545Z,15.90
2019-01-26T15:15:59.153Z,16.57
2019-01-26T15:18:30.849Z,16.33
2019-01-26T15:20:58.670Z,17.30
2019-01-26T15:23:25.340Z,16.40
2019-01-26T15:25:53.200Z,16.80
2019-01-26T15:28:19.865Z,15.97
2019-01-26T15:30:46.446Z,16.40
2019-01-26T15:33:19.329Z,16.53
2019-01-26T15:35:46.053Z,16.17
2019-01-26T15:38:12.592Z,15.13
2019-01-26T15:40:41.120Z,16.00
2019-01-26T15:43:07.620Z,16.10
2019-01-26T15:45:35.509Z,14.83
2019-01-26T15:48:02.012Z,16.00
2019-01-26T15:50:29.576Z,15.20
2019-01-26T15:52:56.344Z,17.00
2019-01-26T15:55:23.296Z,17.10
2019-01-26T15:57:49.838Z,15.77
2019-01-26T16:00:17.525Z,16.03
2019-01-26T16:02:44.119Z,16.77
2019-01-26T16:05:13.962Z,17.50
2019-01-26T16:07:40.525Z,16.63
2019-01-26T16:10:07.546Z,16.60
2019-01-26T16:12:34.336Z,16.47
2019-01-26T16:15:01.207Z,16.40
2019-01-26T16:17:28.053Z,17.50
2019-01-26T16:19:54.790Z,16.13
2019-01-26T16:22:21.621Z,17.80
2019-01-26T16:24:51.441Z,17.33
2019-01-26T16:27:21.206Z,16.60
2019-01-26T16:29:48.866Z,17.27
2019-01-26T16:32:15.767Z,16.87
2019-01-26T16:34:43.039Z,18.03
2019-01-26T16:37:09.685Z,17.50
2019-01-26T16:39:37.149Z,18.07
2019-01-26T16:42:04.968Z,17.87
2019-01-26T16:44:34.218Z,17.13
2019-01-26T16:47:00.999Z,17.47
2019-01-26T16:49:30.813Z,17.97
2019-01-26T16:51:57.475Z,18.93
2019-01-26T16:54:24.230Z,18.47
2019-01-26T16:56:51.175Z,22.23
2019-01-26T16:59:38.544Z,18.33
2019-01-26T17:02:11.176Z,19.13
2019-01-26T17:04:51.802Z,18.30
2019-01-26T17:07:25.463Z,18.07
2019-01-26T17:09:53.969Z,18.77
2019-01-26T17:12:44.867Z,19.10
2019-01-26T17:18:02.671Z,17.90
2019-01-26T17:20:40.020Z,18.67
2019-01-26T17:23:42.421Z,18.50
2019-01-26T17:26:00.970Z,19.40
2019-01-26T17:28:35.568Z,17.27
2019-01-26T17:31:06.358Z,16.87
2019-01-26T17:34:05.998Z,14.53
2019-01-26T17:36:33.676Z,14.23
2019-01-26T17:39:02.570Z,14.53
2019-01-26T17:41:34.102Z,14.37
2019-01-26T17:44:01.203Z,13.50
2019-01-26T17:46:29.763Z,13.33
2019-01-26T17:48:58.891Z,13.87
2019-01-26T17:51:42.210Z,14.23
2019-01-26T17:54:28.141Z,12.37
2019-01-26T17:56:56.725Z,12.77
2019-01-26T17:59:28.193Z,11.43
2019-01-26T18:02:15.963Z,11.43
2019-01-26T18:04:53.750Z,10.63
2019-01-26T18:07:22.294Z,10.40
2019-01-26T18:10:06.382Z,10.70
2019-01-26T18:12:43.623Z,11.00
2019-01-26T18:15:30.021Z,9.77
2019-01-26T18:18:28.751Z,10.53
2019-01-26T18:20:56.011Z,10.60
2019-01-26T18:23:29.699Z,10.27
2019-01-26T18:26:01.911Z,10.60
2019-01-26T18:28:37.582Z,11.27
2019-01-26T18:31:04.423Z,11.87
2019-01-26T18:33:35.012Z,11.80
2019-01-26T18:36:01.990Z,12.40
2019-01-26T18:38:31.288Z,12.00
2019-01-26T18:41:01.430Z,12.03
2019-01-26T18:43:29.899Z,13.90
2019-01-26T18:45:56.796Z,13.70
2019-01-26T18:48:23.606Z,12.97
2019-01-26T18:50:59.423Z,13.03
2019-01-26T18:53:29.319Z,12.43
2019-01-26T18:56:02.097Z,13.43
2019-01-26T18:58:41.434Z,12.20
2019-01-26T19:01:08.787Z,13.33
2019-01-26T19:04:01.123Z,13.53
2019-01-26T19:06:29.156Z,13.57
2019-01-26T19:09:06.228Z,13.50
2019-01-26T19:11:33.986Z,14.90
2019-01-26T19:14:06.791Z,13.50
2019-01-26T19:16:33.831Z,13.37
2019-01-26T19:19:06.923Z,12.67
2019-01-26T19:21:37.259Z,13.47
2019-01-26T19:24:09.068Z,13.23
2019-01-26T19:26:36.184Z,12.50
2019-01-26T19:29:04.884Z,12.47
2019-01-26T19:31:32.642Z,13.47
2019-01-26T19:34:10.073Z,13.93
2019-01-26T19:36:40.596Z,12.90
2019-01-26T19:39:07.635Z,12.80
2019-01-26T19:41:34.424Z,13.03
2019-01-26T19:44:01.400Z,11.97
2019-01-26T19:46:30.611Z,13.17
2019-01-26T19:48:57.724Z,12.57
2019-01-26T19:51:27.008Z,12.27
2019-01-26T19:53:53.887Z,12.00
2019-01-26T19:56:28.372Z,11.90
2019-01-26T19:58:59.746Z,11.67
2019-01-26T20:01:27.932Z,11.17
2019-01-26T20:03:54.764Z,11.60
2019-01-26T20:06:21.858Z,10.13
2019-01-26T20:08:54.189Z,9.83
2019-01-26T20:11:21.038Z,9.33
2019-01-26T20:13:47.992Z,10.57
2019-01-26T20:16:14.748Z,10.40
2019-01-26T20:18:45.672Z,10.23
2019-01-26T20:21:23.140Z,9.50
2019-01-26T20:23:55.861Z,10.37
2019-01-26T20:26:24.229Z,9.97
2019-01-26T20:28:54.774Z,9.67
2019-01-26T20:31:21.510Z,9.03
2019-01-26T20:33:56.815Z,10.30
2019-01-26T20:36:30.568Z,8.73
2019-01-26T20:39:00.720Z,9.60
2019-01-26T20:41:27.510Z,9.97
2019-01-26T20:43:54.446Z,9.53
2019-01-26T20:46:22.764Z,9.03
2019-01-26T20:48:53.331Z,8.93
2019-01-26T20:51:57.900Z,9.03
2019-01-26T20:54:25.676Z,8.93
2019-01-26T20:56:53.097Z,9.43
2019-01-26T20:59:26.650Z,11.20
2019-01-26T21:01:56.576Z,9.20
2019-01-26T21:04:26.893Z,9.20
2019-01-26T21:06:54.081Z,9.20
2019-01-26T21:09:32.253Z,8.67
2019-01-26T21:11:59.146Z,8.93
2019-01-26T21:14:30.873Z,8.37
2019-01-26T21:17:09.177Z,8.03
2019-01-26T21:19:46.798Z,8.20
2019-01-26T21:22:21.866Z,8.50
2019-01-26T21:28:17.434Z,8.13
2019-01-26T21:30:44.390Z,8.33
2019-01-26T21:33:34.704Z,8.40
2019-01-26T21:36:04.785Z,8.10
2019-01-26T21:38:34.608Z,7.50
2019-01-26T21:41:01.747Z,8.37
2019-01-26T21:43:28.464Z,8.20
2019-01-26T21:48:45.730Z,9.73
2019-01-26T21:51:12.420Z,7.87
2019-01-26T21:53:45.565Z,7.67
2019-01-26T21:56:17.235Z,7.57
2019-01-26T22:01:42.337Z,8.20
2019-01-26T22:04:13.388Z,7.60
2019-01-26T22:06:45.220Z,8.30
2019-01-26T22:09:12.291Z,7.90
2019-01-26T22:11:39.301Z,7.70
2019-01-26T22:14:06.165Z,7.57
2019-01-26T22:16:33.119Z,7.53
2019-01-26T22:19:00.088Z,7.40
2019-01-26T22:21:26.908Z,9.07
2019-01-26T22:23:56.943Z,7.53
2019-01-26T22:26:23.773Z,7.60
2019-01-26T22:28:56.966Z,7.30
2019-01-26T22:31:25.093Z,7.07
2019-01-26T22:33:52.260Z,7.47
2019-01-26T22:36:19.356Z,7.13
2019-01-26T22:38:48.168Z,6.77
2019-01-26T22:41:15.522Z,7.30
2019-01-26T22:43:42.340Z,7.00
2019-01-26T22:46:12.411Z,6.93
2019-01-26T22:48:42.442Z,6.63
2019-01-26T22:51:13.898Z,7.40
2019-01-26T22:53:41.891Z,6.93
2019-01-26T22:56:17.693Z,7.00
2019-01-26T22:58:47.273Z,6.57
2019-01-26T23:01:28.294Z,6.37
2019-01-26T23:04:06.351Z,6.80
2019-01-26T23:06:52.529Z,6.00
2019-01-26T23:09:24.423Z,5.90
2019-01-26T23:11:59.881Z,6.27
2019-01-26T23:14:55.114Z,6.23
2019-01-26T23:17:53.591Z,5.90
2019-01-26T23:20:51.839Z,6.23
2019-01-26T23:23:40.037Z,6.37
2019-01-26T23:26:27.036Z,6.87
2019-01-26T23:29:22.415Z,6.40
2019-01-26T23:31:51.027Z,6.53
2019-01-26T23:34:18.247Z,6.70
2019-01-26T23:36:45.413Z,5.60
2019-01-26T23:39:12.689Z,6.70
2019-01-26T23:41:39.863Z,6.50
2019-01-26T23:44:06.674Z,6.47
2019-01-26T23:46:34.904Z,6.00
2019-01-26T23:49:01.865Z,5.67
2019-01-26T23:51:28.507Z,5.83
2019-01-26T23:53:55.513Z,6.00
2019-01-26T23:56:22.357Z,6.07
2019-01-26T23:58:50.317Z,6.20
